createdAt,value
2022-11-23T00:00:10.966Z,492.13
2022-11-23T00:00:43.308Z,497.88
2022-11-23T00:01:21.689Z,494.73
2022-11-23T00:01:53.987Z,488.10
2022-11-23T00:02:26.703Z,502.70
2022-11-23T00:02:59.450Z,501.50
2022-11-23T00:03:32.087Z,498.20
2022-11-23T00:04:05.728Z,497.83
2022-11-23T00:04:37.964Z,500.13
2022-11-23T00:05:10.736Z,497.00
2022-11-23T00:05:43.149Z,499.05
2022-11-23T00:06:15.890Z,494.77
2022-11-23T00:06:48.131Z,494.67
2022-11-23T00:07:20.446Z,498.90
2022-11-23T00:07:52.763Z,511.30
2022-11-23T00:08:25.052Z,515.65
2022-11-23T00:08:57.793Z,506.05
2022-11-23T00:09:30.396Z,506.27
2022-11-23T00:10:02.968Z,512.90
2022-11-23T00:10:35.299Z,510.65
2022-11-23T00:11:08.038Z,503.05
2022-11-23T00:11:40.287Z,508.23
2022-11-23T00:12:12.677Z,506.30
2022-11-23T00:12:45.099Z,505.38
2022-11-23T00:13:17.371Z,498.95
2022-11-23T00:13:50.144Z,505.05
2022-11-23T00:14:22.469Z,493.55
2022-11-23T00:14:54.708Z,496.90
2022-11-23T00:15:27.189Z,498.08
2022-11-23T00:15:59.460Z,501.10
2022-11-23T00:16:31.917Z,498.77
2022-11-23T00:17:53.804Z,495.65
2022-11-23T00:18:26.136Z,502.98
2022-11-23T00:18:59.312Z,500.15
2022-11-23T00:19:31.803Z,506.73
2022-11-23T00:20:05.014Z,507.77
2022-11-23T00:20:39.252Z,499.38
2022-11-23T00:21:14.952Z,512.15
2022-11-23T00:21:47.204Z,502.75
2022-11-23T00:22:19.679Z,509.33
2022-11-23T00:22:52.019Z,508.35
2022-11-23T00:23:24.276Z,506.70
2022-11-23T00:23:56.698Z,510.13
2022-11-23T00:24:29.039Z,509.95
2022-11-23T00:25:01.596Z,506.05
2022-11-23T00:25:34.728Z,508.80
2022-11-23T00:26:07.515Z,516.88
2022-11-23T00:26:39.841Z,509.23
2022-11-23T00:27:12.106Z,510.88
2022-11-23T00:27:44.402Z,514.47
2022-11-23T00:28:16.776Z,515.83
2022-11-23T00:28:50.887Z,510.60
2022-11-23T00:29:23.429Z,513.55
2022-11-23T00:29:55.669Z,509.15
2022-11-23T00:30:29.220Z,507.60
2022-11-23T00:31:01.764Z,509.50
2022-11-23T00:31:34.025Z,506.83
2022-11-23T00:32:06.713Z,508.95
2022-11-23T00:32:42.671Z,511.25
2022-11-23T00:33:15.133Z,512.63
2022-11-23T00:33:54.546Z,507.48
2022-11-23T00:34:27.038Z,517.38
2022-11-23T00:34:59.361Z,512.92
2022-11-23T00:35:31.627Z,509.17
2022-11-23T00:36:08.201Z,502.30
2022-11-23T00:36:40.538Z,499.92
2022-11-23T00:37:13.054Z,502.88
2022-11-23T00:37:45.361Z,504.75
2022-11-23T00:38:17.638Z,510.35
2022-11-23T00:38:50.071Z,507.88
2022-11-23T00:39:22.494Z,504.17
2022-11-23T00:39:54.981Z,511.80
2022-11-23T00:40:27.333Z,499.45
2022-11-23T00:41:01.137Z,509.60
2022-11-23T00:41:33.494Z,507.95
2022-11-23T00:42:07.222Z,501.77
2022-11-23T00:42:39.489Z,512.28
2022-11-23T00:43:11.801Z,506.10
2022-11-23T00:43:44.146Z,513.92
2022-11-23T00:44:16.539Z,517.90
2022-11-23T00:44:48.841Z,514.90
2022-11-23T00:45:21.140Z,519.42
2022-11-23T00:46:06.453Z,522.28
2022-11-23T00:46:38.786Z,527.20
2022-11-23T00:47:11.065Z,515.45
2022-11-23T00:47:43.487Z,522.08
2022-11-23T00:48:15.726Z,520.97
2022-11-23T00:48:49.383Z,525.25
2022-11-23T00:49:22.433Z,532.90
2022-11-23T00:49:54.733Z,539.38
2022-11-23T00:50:27.077Z,546.92
2022-11-23T00:51:06.627Z,562.78
2022-11-23T00:51:38.952Z,570.60
2022-11-23T00:52:11.257Z,557.13
2022-11-23T00:52:43.558Z,544.17
2022-11-23T00:53:15.853Z,565.90
2022-11-23T00:53:49.547Z,563.83
2022-11-23T00:54:21.848Z,568.20
2022-11-23T00:54:54.169Z,574.80
2022-11-23T00:55:26.760Z,560.95
2022-11-23T00:55:59.171Z,570.03
2022-11-23T00:56:32.334Z,569.47
2022-11-23T00:57:04.936Z,591.42
2022-11-23T00:57:37.456Z,580.28
2022-11-23T00:58:09.771Z,522.33
2022-11-23T00:58:42.287Z,577.33
2022-11-23T00:59:14.537Z,537.53
2022-11-23T00:59:46.828Z,580.50
2022-11-23T01:00:19.171Z,568.72
2022-11-23T01:00:51.476Z,494.00
2022-11-23T01:01:25.070Z,495.67
2022-11-23T01:01:58.152Z,548.72
2022-11-23T01:02:30.565Z,501.92
2022-11-23T01:03:02.918Z,574.75
2022-11-23T01:03:36.429Z,524.30
2022-11-23T01:04:09.399Z,587.60
2022-11-23T01:04:41.850Z,566.88
2022-11-23T01:05:14.127Z,563.40
2022-11-23T01:05:46.412Z,573.30
2022-11-23T01:06:20.177Z,585.28
2022-11-23T01:06:55.872Z,579.50
2022-11-23T01:07:30.654Z,577.22
2022-11-23T01:08:03.289Z,601.95
2022-11-23T01:08:37.830Z,566.55
2022-11-23T01:09:14.599Z,506.75
2022-11-23T01:09:47.093Z,553.92
2022-11-23T01:10:19.396Z,526.35
2022-11-23T01:10:51.651Z,544.67
2022-11-23T01:11:24.845Z,581.22
2022-11-23T01:11:57.210Z,554.60
2022-11-23T01:12:30.095Z,561.80
2022-11-23T01:13:02.386Z,560.22
2022-11-23T01:13:35.749Z,547.35
2022-11-23T01:14:08.131Z,556.50
2022-11-23T01:14:40.390Z,564.38
2022-11-23T01:15:12.650Z,550.70
2022-11-23T01:15:51.250Z,563.03
2022-11-23T01:16:57.060Z,516.00
2022-11-23T01:17:29.362Z,543.67
2022-11-23T01:18:01.626Z,554.85
2022-11-23T01:18:36.081Z,603.20
2022-11-23T01:19:10.603Z,608.50
2022-11-23T01:19:42.956Z,578.35
2022-11-23T01:20:15.691Z,590.50
2022-11-23T01:20:48.202Z,584.13
2022-11-23T01:21:20.707Z,582.60
2022-11-23T01:21:53.261Z,564.53
2022-11-23T01:22:25.526Z,574.97
2022-11-23T01:22:57.933Z,565.70
2022-11-23T01:23:30.619Z,572.05
2022-11-23T01:24:06.631Z,581.45
2022-11-23T01:24:39.925Z,581.50
2022-11-23T01:25:14.662Z,577.53
2022-11-23T01:25:47.043Z,583.30
2022-11-23T01:26:19.645Z,568.38
2022-11-23T01:26:55.522Z,569.83
2022-11-23T01:27:27.890Z,578.63
2022-11-23T01:28:00.179Z,581.83
2022-11-23T01:28:32.898Z,579.20
2022-11-23T01:29:05.471Z,585.13
2022-11-23T01:29:37.722Z,582.08
2022-11-23T01:30:10.488Z,584.42
2022-11-23T01:30:42.966Z,592.75
2022-11-23T01:31:16.465Z,563.72
2022-11-23T01:31:50.270Z,549.40
2022-11-23T01:32:22.576Z,565.17
2022-11-23T01:32:54.882Z,574.10
2022-11-23T01:33:27.196Z,603.60
2022-11-23T01:34:00.332Z,550.95
2022-11-23T01:34:32.811Z,557.10
2022-11-23T01:35:05.213Z,561.97
2022-11-23T01:35:37.513Z,589.38
2022-11-23T01:36:10.813Z,583.25
2022-11-23T01:36:43.553Z,567.15
2022-11-23T01:37:15.823Z,559.60
2022-11-23T01:37:50.128Z,552.05
2022-11-23T01:38:22.389Z,554.00
2022-11-23T01:38:55.355Z,569.17
2022-11-23T01:39:27.765Z,565.88
2022-11-23T01:40:00.621Z,559.80
2022-11-23T01:40:39.617Z,566.47
2022-11-23T01:41:13.827Z,527.42
2022-11-23T01:41:46.368Z,541.15
2022-11-23T01:42:18.786Z,557.85
2022-11-23T01:42:54.057Z,545.83
2022-11-23T01:43:26.384Z,559.50
2022-11-23T01:43:58.807Z,551.72
2022-11-23T01:44:32.961Z,553.17
2022-11-23T01:45:23.898Z,550.35
2022-11-23T01:45:57.414Z,560.40
2022-11-23T01:46:29.674Z,564.67
2022-11-23T01:47:08.873Z,558.00
2022-11-23T01:47:41.424Z,584.75
2022-11-23T01:48:16.739Z,587.40
2022-11-23T01:48:48.983Z,587.72
2022-11-23T01:49:22.819Z,568.28
2022-11-23T01:49:55.740Z,563.53
2022-11-23T01:50:28.154Z,561.55
2022-11-23T01:51:02.522Z,563.67
2022-11-23T01:51:39.822Z,571.53
2022-11-23T01:52:15.648Z,585.40
2022-11-23T01:52:47.966Z,574.88
2022-11-23T01:53:21.431Z,572.70
2022-11-23T01:53:57.770Z,576.20
2022-11-23T01:54:32.026Z,569.38
2022-11-23T01:55:08.420Z,581.83
2022-11-23T01:55:41.273Z,608.63
2022-11-23T01:56:16.598Z,594.33
2022-11-23T01:56:51.674Z,554.53
2022-11-23T01:57:26.283Z,536.50
2022-11-23T01:57:58.991Z,539.55
2022-11-23T01:58:33.182Z,551.63
2022-11-23T01:59:07.780Z,561.67
2022-11-23T01:59:40.359Z,588.78
2022-11-23T02:00:13.714Z,552.38
2022-11-23T02:00:45.944Z,575.70
2022-11-23T02:01:19.207Z,580.05
2022-11-23T02:01:51.898Z,576.33
2022-11-23T02:02:25.785Z,565.60
2022-11-23T02:03:00.514Z,558.33
2022-11-23T02:03:35.296Z,565.95
2022-11-23T02:04:12.122Z,552.80
2022-11-23T02:04:49.425Z,543.90
2022-11-23T02:05:23.317Z,560.75
2022-11-23T02:06:02.452Z,546.00
2022-11-23T02:06:35.224Z,540.10
2022-11-23T02:07:08.640Z,571.65
2022-11-23T02:07:41.358Z,558.63
2022-11-23T02:08:15.396Z,547.20
2022-11-23T02:08:51.001Z,532.97
2022-11-23T02:09:25.214Z,531.20
2022-11-23T02:09:57.701Z,534.58
2022-11-23T02:10:31.384Z,528.88
2022-11-23T02:11:03.799Z,516.13
2022-11-23T02:11:36.077Z,533.83
2022-11-23T02:12:12.147Z,522.15
2022-11-23T02:12:44.422Z,521.13
2022-11-23T02:13:18.094Z,527.45
2022-11-23T02:13:51.785Z,522.55
2022-11-23T02:14:24.144Z,523.83
2022-11-23T02:15:00.045Z,532.00
2022-11-23T02:15:32.606Z,527.30
2022-11-23T02:16:05.263Z,529.35
2022-11-23T02:16:38.042Z,533.80
2022-11-23T02:17:10.545Z,543.47
2022-11-23T02:17:43.709Z,559.42
2022-11-23T02:18:18.091Z,568.40
2022-11-23T02:18:50.905Z,589.15
2022-11-23T02:19:28.217Z,589.35
2022-11-23T02:20:09.387Z,583.63
2022-11-23T02:20:42.989Z,559.80
2022-11-23T02:21:15.362Z,569.70
2022-11-23T02:21:52.404Z,564.67
2022-11-23T02:22:43.340Z,584.53
2022-11-23T02:23:31.538Z,551.30
2022-11-23T02:24:06.272Z,550.88
2022-11-23T02:24:45.471Z,564.25
2022-11-23T02:25:29.567Z,570.90
2022-11-23T02:26:04.228Z,578.20
2022-11-23T02:26:38.733Z,565.47
2022-11-23T02:27:11.079Z,560.88
2022-11-23T02:27:46.917Z,551.47
2022-11-23T02:28:21.891Z,569.75
2022-11-23T02:28:57.155Z,571.92
2022-11-23T02:29:30.011Z,586.47
2022-11-23T02:30:06.655Z,579.22
2022-11-23T02:30:40.053Z,573.05
2022-11-23T02:32:05.119Z,562.35
2022-11-23T02:32:38.386Z,557.50
2022-11-23T02:33:10.656Z,545.30
2022-11-23T02:33:42.926Z,564.85
2022-11-23T02:34:15.255Z,549.42
2022-11-23T02:34:47.576Z,549.47
2022-11-23T02:35:19.818Z,553.85
2022-11-23T02:35:52.134Z,558.50
2022-11-23T02:36:34.688Z,545.85
2022-11-23T02:37:10.754Z,531.97
2022-11-23T02:37:43.350Z,535.45
2022-11-23T02:38:16.467Z,537.60
2022-11-23T02:38:48.704Z,534.22
2022-11-23T02:39:37.802Z,532.13
2022-11-23T02:40:14.975Z,521.58
2022-11-23T02:40:47.350Z,539.53
2022-11-23T02:41:19.621Z,545.95
2022-11-23T02:41:56.646Z,549.90
2022-11-23T02:44:15.344Z,390.48
2022-11-23T02:44:53.734Z,391.67
2022-11-23T02:45:38.689Z,387.33
2022-11-23T02:46:11.203Z,387.08
2022-11-23T02:46:43.429Z,390.70
2022-11-23T02:48:25.408Z,393.40
2022-11-23T02:48:57.653Z,388.92
2022-11-23T02:49:32.487Z,382.23
2022-11-23T02:50:04.960Z,391.20
2022-11-23T02:50:37.236Z,390.40
2022-11-23T02:51:09.454Z,387.35
2022-11-23T02:51:41.709Z,397.90
2022-11-23T02:52:14.366Z,390.55
2022-11-23T02:52:46.545Z,398.85
2022-11-23T02:53:21.005Z,391.90
2022-11-23T02:53:53.494Z,391.30
2022-11-23T02:54:25.909Z,390.98
2022-11-23T02:54:58.194Z,404.95
2022-11-23T02:55:30.825Z,402.35
2022-11-23T02:56:06.066Z,397.30
2022-11-23T02:56:38.808Z,405.75
2022-11-23T02:57:11.179Z,400.67
2022-11-23T02:57:45.565Z,400.70
2022-11-23T02:58:17.822Z,397.75
2022-11-23T02:58:50.264Z,405.42
2022-11-23T02:59:23.417Z,397.23
2022-11-23T02:59:57.361Z,400.42
2022-11-23T03:00:30.959Z,407.15
2022-11-23T03:01:04.973Z,407.77
2022-11-23T03:01:37.640Z,397.20
2022-11-23T03:02:11.484Z,401.83
2022-11-23T03:02:43.759Z,398.00
2022-11-23T03:03:17.397Z,397.75
2022-11-23T03:03:49.881Z,396.58
2022-11-23T03:04:27.623Z,406.45
2022-11-23T03:05:00.465Z,401.67
2022-11-23T03:05:32.837Z,410.00
2022-11-23T03:06:10.368Z,401.55
2022-11-23T03:06:42.901Z,407.25
2022-11-23T03:07:15.272Z,409.33
2022-11-23T03:07:47.751Z,406.75
2022-11-23T03:08:20.047Z,398.42
2022-11-23T03:08:52.589Z,405.75
2022-11-23T03:09:26.479Z,408.23
2022-11-23T03:09:59.169Z,401.05
2022-11-23T03:10:31.455Z,400.58
2022-11-23T03:11:04.130Z,401.90
2022-11-23T03:11:37.039Z,411.75
2022-11-23T03:12:09.382Z,402.42
2022-11-23T03:12:41.911Z,407.48
2022-11-23T03:13:18.742Z,401.58
2022-11-23T03:13:50.991Z,399.63
2022-11-23T03:14:26.057Z,402.67
2022-11-23T03:15:03.851Z,397.45
2022-11-23T03:15:36.959Z,400.02
2022-11-23T03:16:10.730Z,395.10
2022-11-23T03:16:43.738Z,395.30
2022-11-23T03:17:16.440Z,394.25
2022-11-23T03:17:50.537Z,396.55
2022-11-23T03:18:23.134Z,399.98
2022-11-23T03:18:55.523Z,408.65
2022-11-23T03:19:28.498Z,418.17
2022-11-23T03:20:01.765Z,409.33
2022-11-23T03:20:37.069Z,401.33
2022-11-23T03:21:10.238Z,403.98
2022-11-23T03:21:43.975Z,407.88
2022-11-23T03:22:16.283Z,402.10
2022-11-23T03:22:48.676Z,405.20
2022-11-23T03:23:22.650Z,409.92
2022-11-23T03:23:55.785Z,411.50
2022-11-23T03:24:28.077Z,403.40
2022-11-23T03:25:01.447Z,399.80
2022-11-23T03:25:34.079Z,404.10
2022-11-23T03:26:12.694Z,407.13
2022-11-23T03:26:53.485Z,405.05
2022-11-23T03:27:26.223Z,410.00
2022-11-23T03:27:58.612Z,410.88
2022-11-23T03:28:31.137Z,410.40
2022-11-23T03:29:03.465Z,405.85
2022-11-23T03:29:36.063Z,404.33
2022-11-23T03:30:15.557Z,403.23
2022-11-23T03:30:48.513Z,413.20
2022-11-23T03:31:21.852Z,407.20
2022-11-23T03:31:55.070Z,409.67
2022-11-23T03:32:27.337Z,414.77
2022-11-23T03:33:00.047Z,412.17
2022-11-23T03:33:34.096Z,412.13
2022-11-23T03:34:06.397Z,409.05
2022-11-23T03:34:40.402Z,412.63
2022-11-23T03:35:13.407Z,412.02
2022-11-23T03:36:05.789Z,418.52
2022-11-23T03:36:44.106Z,406.27
2022-11-23T03:37:16.505Z,407.95
2022-11-23T03:37:48.872Z,408.70
2022-11-23T03:38:21.465Z,420.92
2022-11-23T03:38:54.076Z,408.13
2022-11-23T03:39:47.710Z,414.30
2022-11-23T03:40:39.482Z,410.30
2022-11-23T03:41:21.821Z,412.35
2022-11-23T03:41:57.437Z,416.85
2022-11-23T03:42:35.849Z,411.75
2022-11-23T03:43:08.247Z,409.77
2022-11-23T03:43:40.580Z,428.35
2022-11-23T03:44:13.501Z,427.38
2022-11-23T03:44:45.737Z,425.80
2022-11-23T03:45:18.082Z,423.75
2022-11-23T03:45:50.389Z,429.05
2022-11-23T03:46:22.619Z,421.58
2022-11-23T03:46:54.977Z,421.70
2022-11-23T03:47:27.308Z,422.92
2022-11-23T03:47:59.580Z,420.65
2022-11-23T03:48:31.889Z,429.60
2022-11-23T03:49:04.353Z,424.08
2022-11-23T03:49:38.120Z,436.35
2022-11-23T03:50:10.641Z,437.75
2022-11-23T03:50:44.422Z,451.25
2022-11-23T03:51:16.712Z,564.63
2022-11-23T03:51:49.067Z,535.72
2022-11-23T03:52:21.393Z,549.75
2022-11-23T03:52:53.985Z,544.63
2022-11-23T03:53:26.333Z,545.97
2022-11-23T03:53:58.585Z,549.58
2022-11-23T03:54:30.960Z,544.05
2022-11-23T03:55:03.327Z,542.83
2022-11-23T03:55:35.900Z,552.25
2022-11-23T03:56:08.926Z,539.25
2022-11-23T03:56:46.097Z,553.55
2022-11-23T03:57:18.401Z,536.45
2022-11-23T03:57:50.858Z,540.67
2022-11-23T03:58:23.329Z,549.63
2022-11-23T03:58:55.762Z,551.50
2022-11-23T03:59:29.153Z,552.28
2022-11-23T04:00:01.689Z,547.83
2022-11-23T04:00:34.542Z,545.53
2022-11-23T04:01:07.911Z,541.42
2022-11-23T04:01:40.332Z,532.65
2022-11-23T04:02:16.478Z,546.00
2022-11-23T04:02:56.723Z,533.83
2022-11-23T04:03:47.381Z,537.90
2022-11-23T04:04:39.952Z,544.65
2022-11-23T04:05:17.253Z,536.83
2022-11-23T04:06:08.179Z,529.83
2022-11-23T04:07:02.522Z,505.95
2022-11-23T04:07:38.639Z,534.78
2022-11-23T04:08:10.968Z,544.17
2022-11-23T04:08:43.362Z,541.45
2022-11-23T04:09:21.899Z,539.38
2022-11-23T04:10:17.640Z,544.72
2022-11-23T04:11:07.651Z,539.28
2022-11-23T04:11:44.621Z,550.25
2022-11-23T04:12:17.152Z,552.60
2022-11-23T04:12:53.092Z,543.80
2022-11-23T04:13:25.824Z,546.92
2022-11-23T04:13:58.091Z,544.15
2022-11-23T04:14:30.852Z,543.75
2022-11-23T04:15:04.886Z,556.78
2022-11-23T04:15:37.348Z,549.63
2022-11-23T04:16:09.674Z,539.67
2022-11-23T04:16:42.945Z,536.20
2022-11-23T04:17:16.110Z,524.47
2022-11-23T04:17:49.441Z,545.05
2022-11-23T04:18:21.822Z,533.50
2022-11-23T04:18:54.284Z,541.42
2022-11-23T04:19:27.085Z,542.28
2022-11-23T04:19:59.339Z,543.63
2022-11-23T04:20:31.685Z,552.60
2022-11-23T04:21:04.026Z,551.92
2022-11-23T04:21:36.275Z,552.42
2022-11-23T04:22:08.722Z,560.80
2022-11-23T04:22:45.587Z,555.78
2022-11-23T04:23:19.834Z,551.88
2022-11-23T04:23:54.446Z,539.60
2022-11-23T04:24:26.768Z,540.35
2022-11-23T04:25:01.442Z,543.58
2022-11-23T04:25:33.830Z,541.08
2022-11-23T04:26:06.609Z,547.42
2022-11-23T04:26:40.672Z,543.05
2022-11-23T04:27:14.894Z,549.35
2022-11-23T04:27:48.241Z,544.40
2022-11-23T04:28:20.657Z,546.22
2022-11-23T04:28:54.358Z,545.75
2022-11-23T04:29:26.675Z,539.42
2022-11-23T04:30:00.059Z,537.83
2022-11-23T04:30:32.951Z,538.30
2022-11-23T04:31:06.011Z,534.08
2022-11-23T04:31:48.568Z,548.03
2022-11-23T04:32:23.961Z,537.97
2022-11-23T04:32:56.419Z,562.13
2022-11-23T04:33:28.926Z,551.63
2022-11-23T04:34:01.274Z,531.42
2022-11-23T04:34:34.076Z,527.10
2022-11-23T04:35:09.373Z,543.25
2022-11-23T04:35:43.308Z,542.22
2022-11-23T04:36:15.608Z,541.83
2022-11-23T04:36:48.269Z,535.83
2022-11-23T04:37:20.692Z,533.35
2022-11-23T04:37:52.987Z,534.75
2022-11-23T04:38:26.079Z,540.40
2022-11-23T04:38:58.454Z,549.17
2022-11-23T04:39:40.206Z,583.00
2022-11-23T04:40:18.771Z,551.20
2022-11-23T04:41:02.921Z,536.53
2022-11-23T04:41:35.355Z,541.97
2022-11-23T04:42:09.858Z,547.40
2022-11-23T04:42:42.620Z,554.53
2022-11-23T04:43:15.014Z,541.60
2022-11-23T04:43:49.526Z,549.50
2022-11-23T04:44:21.828Z,529.92
2022-11-23T04:44:58.279Z,535.85
2022-11-23T04:45:30.611Z,536.55
2022-11-23T04:46:07.081Z,541.92
2022-11-23T04:46:39.395Z,533.78
2022-11-23T04:47:16.158Z,531.30
2022-11-23T04:47:49.584Z,534.38
2022-11-23T04:48:22.313Z,540.90
2022-11-23T04:48:54.898Z,537.42
2022-11-23T04:49:27.362Z,537.33
2022-11-23T04:50:00.234Z,540.65
2022-11-23T04:50:32.712Z,539.22
2022-11-23T04:51:04.993Z,536.45
2022-11-23T04:51:41.996Z,547.50
2022-11-23T04:52:14.344Z,549.08
2022-11-23T04:52:51.780Z,559.92
2022-11-23T04:53:28.441Z,551.47
2022-11-23T04:54:00.978Z,564.13
2022-11-23T04:54:36.397Z,568.75
2022-11-23T04:55:12.812Z,580.55
2022-11-23T04:55:53.419Z,580.53
2022-11-23T04:56:25.708Z,554.40
2022-11-23T04:56:57.984Z,567.40
2022-11-23T04:57:30.361Z,563.47
2022-11-23T04:58:02.835Z,548.53
2022-11-23T04:58:37.921Z,548.38
2022-11-23T04:59:11.307Z,564.17
2022-11-23T04:59:43.631Z,561.65
2022-11-23T05:00:16.145Z,560.90
2022-11-23T05:00:49.114Z,559.92
2022-11-23T05:01:21.629Z,551.65
2022-11-23T05:02:13.926Z,549.30
2022-11-23T05:02:48.810Z,549.08
2022-11-23T05:03:31.716Z,563.22
2022-11-23T05:04:05.821Z,560.10
2022-11-23T05:04:38.103Z,554.95
2022-11-23T05:05:12.016Z,547.20
2022-11-23T05:05:44.428Z,545.72
2022-11-23T05:06:16.749Z,543.35
2022-11-23T05:06:49.278Z,556.95
2022-11-23T05:07:21.674Z,563.20
2022-11-23T05:08:01.020Z,555.15
2022-11-23T05:08:45.975Z,564.70
2022-11-23T05:09:33.273Z,569.47
2022-11-23T05:10:11.032Z,550.42
2022-11-23T05:10:44.041Z,539.45
2022-11-23T05:11:16.583Z,534.67
2022-11-23T05:11:49.057Z,542.70
2022-11-23T05:12:21.459Z,555.58
2022-11-23T05:12:53.973Z,539.40
2022-11-23T05:13:26.323Z,543.35
2022-11-23T05:13:58.898Z,545.15
2022-11-23T05:14:31.952Z,538.63
2022-11-23T05:15:05.207Z,543.33
2022-11-23T05:15:41.548Z,543.25
2022-11-23T05:16:13.984Z,542.15
2022-11-23T05:16:46.535Z,518.90
2022-11-23T05:17:18.996Z,533.17
2022-11-23T05:17:57.750Z,538.53
2022-11-23T05:18:31.772Z,531.72
2022-11-23T05:19:04.066Z,535.38
2022-11-23T05:19:37.163Z,540.60
2022-11-23T05:20:10.185Z,538.00
2022-11-23T05:20:46.969Z,544.38
2022-11-23T05:21:21.201Z,529.10
2022-11-23T05:21:54.397Z,527.35
2022-11-23T05:22:27.462Z,528.65
2022-11-23T05:22:59.959Z,524.40
2022-11-23T05:23:32.667Z,525.38
2022-11-23T05:24:05.452Z,531.92
2022-11-23T05:24:37.877Z,528.63
2022-11-23T05:25:14.717Z,520.05
2022-11-23T05:25:47.166Z,523.42
2022-11-23T05:26:22.113Z,526.75
2022-11-23T05:26:56.295Z,522.10
2022-11-23T05:27:29.110Z,531.58
2022-11-23T05:28:11.439Z,528.47
2022-11-23T05:28:53.923Z,559.53
2022-11-23T05:29:26.331Z,549.95
2022-11-23T05:29:58.719Z,544.65
2022-11-23T05:30:31.670Z,551.78
2022-11-23T05:31:04.726Z,536.13
2022-11-23T05:31:37.072Z,540.83
2022-11-23T05:32:09.661Z,555.30
2022-11-23T05:32:42.002Z,543.53
2022-11-23T05:33:14.328Z,543.53
2022-11-23T05:33:47.453Z,542.47
2022-11-23T05:34:22.068Z,547.42
2022-11-23T05:34:54.863Z,539.25
2022-11-23T05:35:28.295Z,537.92
2022-11-23T05:36:00.559Z,545.40
2022-11-23T05:36:42.464Z,540.67
2022-11-23T05:37:15.387Z,536.63
2022-11-23T05:37:56.518Z,552.90
2022-11-23T05:38:28.845Z,546.47
2022-11-23T05:39:04.416Z,549.30
2022-11-23T05:39:38.128Z,551.47
2022-11-23T05:40:12.088Z,553.92
2022-11-23T05:40:45.285Z,545.28
2022-11-23T05:41:19.113Z,564.15
2022-11-23T05:41:52.755Z,550.42
2022-11-23T05:42:39.028Z,571.63
2022-11-23T05:43:20.284Z,548.67
2022-11-23T05:43:53.214Z,540.75
2022-11-23T05:44:29.581Z,532.03
2022-11-23T05:45:01.911Z,528.05
2022-11-23T05:45:43.606Z,552.97
2022-11-23T05:46:16.393Z,545.15
2022-11-23T05:46:49.394Z,545.75
2022-11-23T05:47:21.775Z,536.45
2022-11-23T05:47:55.107Z,536.40
2022-11-23T05:48:45.687Z,566.05
2022-11-23T05:49:18.948Z,529.75
2022-11-23T05:49:51.436Z,530.58
2022-11-23T05:50:27.895Z,527.05
2022-11-23T05:51:20.153Z,547.35
2022-11-23T05:51:54.454Z,535.45
2022-11-23T05:52:28.381Z,541.50
2022-11-23T05:53:00.646Z,535.33
2022-11-23T05:53:33.103Z,539.65
2022-11-23T05:54:13.531Z,532.53
2022-11-23T05:55:07.747Z,539.85
2022-11-23T05:55:40.303Z,545.42
2022-11-23T05:56:13.462Z,530.38
2022-11-23T05:57:00.119Z,553.03
2022-11-23T05:57:42.363Z,547.22
2022-11-23T05:58:14.719Z,561.72
2022-11-23T05:58:47.103Z,553.22
2022-11-23T05:59:19.533Z,561.22
2022-11-23T05:59:56.934Z,548.80
2022-11-23T06:00:44.929Z,442.80
2022-11-23T06:01:18.734Z,442.85
2022-11-23T06:01:51.298Z,442.23
2022-11-23T06:02:30.586Z,435.50
2022-11-23T06:03:06.780Z,432.27
2022-11-23T06:03:39.731Z,429.75
2022-11-23T06:04:13.571Z,429.60
2022-11-23T06:04:50.003Z,422.25
2022-11-23T06:05:29.107Z,419.92
2022-11-23T06:06:01.647Z,415.58
2022-11-23T06:06:40.636Z,415.45
2022-11-23T06:07:13.196Z,416.88
2022-11-23T06:08:11.759Z,419.45
2022-11-23T06:08:49.022Z,416.27
2022-11-23T06:09:22.617Z,416.35
2022-11-23T06:09:57.297Z,414.73
2022-11-23T06:10:29.642Z,426.38
2022-11-23T06:11:02.694Z,422.65
2022-11-23T06:11:36.120Z,419.13
2022-11-23T06:12:14.826Z,416.30
2022-11-23T06:12:47.139Z,411.10
2022-11-23T06:13:22.574Z,409.52
2022-11-23T06:13:54.831Z,410.17
2022-11-23T06:14:27.379Z,405.83
2022-11-23T06:14:59.700Z,414.25
2022-11-23T06:15:33.137Z,409.77
2022-11-23T06:16:05.597Z,409.92
2022-11-23T06:16:48.172Z,408.27
2022-11-23T06:17:43.686Z,416.00
2022-11-23T06:18:20.519Z,409.73
2022-11-23T06:18:54.957Z,409.83
2022-11-23T06:19:30.471Z,408.42
2022-11-23T06:20:03.902Z,404.77
2022-11-23T06:20:36.254Z,411.80
2022-11-23T06:21:08.547Z,412.42
2022-11-23T06:21:42.327Z,413.52
2022-11-23T06:22:16.548Z,407.67
2022-11-23T06:23:06.059Z,408.05
2022-11-23T06:23:39.490Z,406.70
2022-11-23T06:24:12.576Z,412.23
2022-11-23T06:24:45.087Z,409.15
2022-11-23T06:25:38.638Z,414.10
2022-11-23T06:26:17.094Z,403.92
2022-11-23T06:26:49.331Z,404.60
2022-11-23T06:27:21.681Z,407.20
2022-11-23T06:27:56.406Z,407.90
2022-11-23T06:28:31.765Z,413.98
2022-11-23T06:29:04.509Z,416.42
2022-11-23T06:29:36.771Z,408.15
2022-11-23T06:30:09.272Z,406.35
2022-11-23T06:30:42.709Z,408.63
2022-11-23T06:31:15.037Z,407.10
2022-11-23T06:31:47.629Z,402.75
2022-11-23T06:32:19.926Z,404.48
2022-11-23T06:32:52.650Z,409.08
2022-11-23T06:33:26.817Z,405.15
2022-11-23T06:33:59.514Z,409.92
2022-11-23T06:34:31.996Z,407.17
2022-11-23T06:35:04.468Z,404.52
2022-11-23T06:35:40.141Z,410.02
2022-11-23T06:36:12.784Z,409.30
2022-11-23T06:36:51.181Z,406.20
2022-11-23T06:37:23.657Z,401.80
2022-11-23T06:37:58.230Z,411.85
2022-11-23T06:38:30.775Z,408.77
2022-11-23T06:39:18.852Z,404.02
2022-11-23T06:39:51.199Z,402.73
2022-11-23T06:40:23.740Z,401.83
2022-11-23T06:41:00.609Z,404.55
2022-11-23T06:41:34.660Z,405.00
2022-11-23T06:42:37.184Z,401.60
2022-11-23T06:43:01.485Z,405.42
2022-11-23T06:43:42.930Z,408.67
2022-11-23T06:44:16.682Z,414.20
2022-11-23T06:44:49.161Z,405.38
2022-11-23T06:45:21.587Z,407.52
2022-11-23T06:45:57.472Z,405.75
2022-11-23T06:46:33.803Z,415.58
2022-11-23T06:47:06.089Z,405.85
2022-11-23T06:47:38.446Z,411.88
2022-11-23T06:48:11.243Z,407.83
2022-11-23T06:48:49.845Z,403.67
2022-11-23T06:49:22.134Z,403.30
2022-11-23T06:50:12.085Z,404.13
2022-11-23T06:50:44.649Z,404.85
2022-11-23T06:51:17.029Z,401.52
2022-11-23T06:51:51.441Z,402.60
2022-11-23T06:52:24.274Z,402.42
2022-11-23T06:52:58.447Z,409.17
2022-11-23T06:53:46.211Z,404.80
2022-11-23T06:54:22.235Z,404.45
2022-11-23T06:54:58.356Z,402.98
2022-11-23T06:55:31.181Z,402.85
2022-11-23T06:56:04.004Z,411.55
2022-11-23T06:56:37.559Z,405.30
2022-11-23T06:57:10.052Z,406.00
2022-11-23T06:57:42.553Z,407.02
2022-11-23T06:58:16.667Z,401.13
2022-11-23T06:58:49.681Z,402.58
2022-11-23T06:59:26.585Z,408.10
2022-11-23T06:59:58.901Z,402.40
2022-11-23T07:00:38.120Z,406.33
2022-11-23T07:01:10.865Z,402.45
2022-11-23T07:01:51.008Z,407.30
2022-11-23T07:02:23.386Z,405.50
2022-11-23T07:02:56.253Z,408.85
2022-11-23T07:03:29.762Z,407.25
2022-11-23T07:04:09.641Z,405.50
2022-11-23T07:04:51.080Z,404.35
2022-11-23T07:05:23.871Z,412.55
2022-11-23T07:05:56.205Z,405.90
2022-11-23T07:06:32.119Z,404.52
2022-11-23T07:07:09.531Z,400.75
2022-11-23T07:07:51.503Z,412.13
2022-11-23T07:08:29.925Z,411.23
2022-11-23T07:09:05.412Z,403.83
2022-11-23T07:09:48.979Z,403.80
2022-11-23T07:10:33.119Z,404.73
2022-11-23T07:11:09.566Z,408.42
2022-11-23T07:11:41.903Z,411.50
2022-11-23T07:12:14.195Z,402.33
2022-11-23T07:12:46.895Z,401.77
2022-11-23T07:13:21.513Z,404.55
2022-11-23T07:13:53.878Z,412.98
2022-11-23T07:14:27.559Z,409.50
2022-11-23T07:15:01.303Z,404.05
2022-11-23T07:15:39.669Z,403.98